sensor_id;sensor_type;location;lat;lon;timestamp;P1;durP1;ratioP1;P2;durP2;ratioP2
34459;SDS011;20704;51.260;22.558;2023-03-08T00:01:21;15.63;;;6.47;;
34459;SDS011;20704;51.260;22.558;2023-03-08T00:03:24;12.32;;;6.32;;
34459;SDS011;20704;51.260;22.558;2023-03-08T00:05:26;13.02;;;7.60;;
34459;SDS011;20704;51.260;22.558;2023-03-08T00:07:28;12.63;;;5.85;;
34459;SDS011;20704;51.260;22.558;2023-03-08T00:09:31;12.30;;;6.80;;
34459;SDS011;20704;51.260;22.558;2023-03-08T00:11:33;12.23;;;7.57;;
34459;SDS011;20704;51.260;22.558;2023-03-08T00:13:36;12.20;;;6.03;;
34459;SDS011;20704;51.260;22.558;2023-03-08T00:15:38;13.00;;;6.80;;
34459;SDS011;20704;51.260;22.558;2023-03-08T00:17:41;13.82;;;6.82;;
34459;SDS011;20704;51.260;22.558;2023-03-08T00:19:43;12.57;;;6.47;;
34459;SDS011;20704;51.260;22.558;2023-03-08T00:21:46;11.15;;;6.45;;
34459;SDS011;20704;51.260;22.558;2023-03-08T00:23:50;15.88;;;6.72;;
34459;SDS011;20704;51.260;22.558;2023-03-08T00:25:55;11.70;;;7.03;;
34459;SDS011;20704;51.260;22.558;2023-03-08T00:27:57;12.18;;;7.22;;
34459;SDS011;20704;51.260;22.558;2023-03-08T00:30:00;11.68;;;7.15;;
34459;SDS011;20704;51.260;22.558;2023-03-08T00:32:02;11.80;;;6.35;;
34459;SDS011;20704;51.260;22.558;2023-03-08T00:34:05;12.90;;;6.72;;
34459;SDS011;20704;51.260;22.558;2023-03-08T00:36:14;13.25;;;7.43;;
34459;SDS011;20704;51.260;22.558;2023-03-08T00:38:18;13.30;;;7.18;;
34459;SDS011;20704;51.260;22.558;2023-03-08T00:40:20;16.08;;;6.80;;
34459;SDS011;20704;51.260;22.558;2023-03-08T00:42:23;16.75;;;7.80;;
34459;SDS011;20704;51.260;22.558;2023-03-08T00:44:25;11.65;;;8.18;;
34459;SDS011;20704;51.260;22.558;2023-03-08T00:46:27;14.77;;;7.18;;
34459;SDS011;20704;51.260;22.558;2023-03-08T00:48:30;13.50;;;6.80;;
34459;SDS011;20704;51.260;22.558;2023-03-08T00:50:32;12.95;;;7.47;;
34459;SDS011;20704;51.260;22.558;2023-03-08T00:52:34;12.07;;;6.95;;
34459;SDS011;20704;51.260;22.558;2023-03-08T00:54:37;15.63;;;7.30;;
34459;SDS011;20704;51.260;22.558;2023-03-08T00:56:39;14.13;;;7.47;;
34459;SDS011;20704;51.260;22.558;2023-03-08T00:58:42;14.25;;;8.07;;
34459;SDS011;20704;51.260;22.558;2023-03-08T01:00:44;14.40;;;6.55;;
34459;SDS011;20704;51.260;22.558;2023-03-08T01:02:47;13.45;;;7.65;;
34459;SDS011;20704;51.260;22.558;2023-03-08T01:04:49;14.68;;;7.80;;
34459;SDS011;20704;51.260;22.558;2023-03-08T01:06:52;17.42;;;7.65;;
34459;SDS011;20704;51.260;22.558;2023-03-08T01:08:54;14.68;;;8.70;;
34459;SDS011;20704;51.260;22.558;2023-03-08T01:11:01;18.17;;;8.15;;
34459;SDS011;20704;51.260;22.558;2023-03-08T01:13:04;14.65;;;8.05;;
34459;SDS011;20704;51.260;22.558;2023-03-08T01:15:07;14.13;;;8.18;;
34459;SDS011;20704;51.260;22.558;2023-03-08T01:17:10;12.13;;;7.10;;
34459;SDS011;20704;51.260;22.558;2023-03-08T01:19:12;17.02;;;9.80;;
34459;SDS011;20704;51.260;22.558;2023-03-08T01:21:14;16.45;;;8.35;;
34459;SDS011;20704;51.260;22.558;2023-03-08T01:23:20;15.07;;;8.43;;
34459;SDS011;20704;51.260;22.558;2023-03-08T01:25:23;14.45;;;7.93;;
34459;SDS011;20704;51.260;22.558;2023-03-08T01:27:25;18.80;;;9.70;;
34459;SDS011;20704;51.260;22.558;2023-03-08T01:29:27;15.90;;;8.55;;
34459;SDS011;20704;51.260;22.558;2023-03-08T01:31:30;15.02;;;8.52;;
34459;SDS011;20704;51.260;22.558;2023-03-08T01:33:33;14.93;;;9.25;;
34459;SDS011;20704;51.260;22.558;2023-03-08T01:35:36;16.20;;;9.23;;
34459;SDS011;20704;51.260;22.558;2023-03-08T01:37:38;15.10;;;8.43;;
34459;SDS011;20704;51.260;22.558;2023-03-08T01:39:41;17.98;;;10.00;;
34459;SDS011;20704;51.260;22.558;2023-03-08T01:41:43;18.40;;;9.38;;
34459;SDS011;20704;51.260;22.558;2023-03-08T01:43:46;19.17;;;9.50;;
34459;SDS011;20704;51.260;22.558;2023-03-08T01:46:10;17.25;;;8.35;;
34459;SDS011;20704;51.260;22.558;2023-03-08T01:48:38;16.38;;;9.32;;
34459;SDS011;20704;51.260;22.558;2023-03-08T01:50:44;18.70;;;9.57;;
34459;SDS011;20704;51.260;22.558;2023-03-08T01:52:49;18.48;;;8.98;;
34459;SDS011;20704;51.260;22.558;2023-03-08T01:54:55;18.00;;;10.50;;
34459;SDS011;20704;51.260;22.558;2023-03-08T01:57:04;13.60;;;8.38;;
34459;SDS011;20704;51.260;22.558;2023-03-08T01:59:28;16.70;;;9.57;;
34459;SDS011;20704;51.260;22.558;2023-03-08T02:01:33;14.82;;;9.60;;
34459;SDS011;20704;51.260;22.558;2023-03-08T02:03:35;16.27;;;8.43;;
34459;SDS011;20704;51.260;22.558;2023-03-08T02:05:39;14.80;;;8.65;;
34459;SDS011;20704;51.260;22.558;2023-03-08T02:07:43;14.27;;;8.05;;
34459;SDS011;20704;51.260;22.558;2023-03-08T02:09:46;19.87;;;9.33;;
34459;SDS011;20704;51.260;22.558;2023-03-08T02:11:49;17.63;;;8.93;;
34459;SDS011;20704;51.260;22.558;2023-03-08T02:13:52;16.85;;;8.40;;
34459;SDS011;20704;51.260;22.558;2023-03-08T02:15:56;16.73;;;7.87;;
34459;SDS011;20704;51.260;22.558;2023-03-08T02:18:00;15.60;;;8.67;;
34459;SDS011;20704;51.260;22.558;2023-03-08T02:22:15;17.17;;;9.65;;
34459;SDS011;20704;51.260;22.558;2023-03-08T02:24:20;23.53;;;11.13;;
34459;SDS011;20704;51.260;22.558;2023-03-08T02:26:24;19.97;;;10.33;;
34459;SDS011;20704;51.260;22.558;2023-03-08T02:28:26;15.63;;;8.77;;
34459;SDS011;20704;51.260;22.558;2023-03-08T02:30:31;22.33;;;10.57;;
34459;SDS011;20704;51.260;22.558;2023-03-08T02:32:36;17.43;;;9.30;;
34459;SDS011;20704;51.260;22.558;2023-03-08T02:34:38;16.50;;;9.00;;
34459;SDS011;20704;51.260;22.558;2023-03-08T02:36:40;17.47;;;9.53;;
34459;SDS011;20704;51.260;22.558;2023-03-08T02:38:43;17.65;;;9.18;;
34459;SDS011;20704;51.260;22.558;2023-03-08T02:40:45;18.83;;;9.57;;
34459;SDS011;20704;51.260;22.558;2023-03-08T02:42:49;18.17;;;9.50;;
34459;SDS011;20704;51.260;22.558;2023-03-08T02:44:53;18.17;;;9.85;;
34459;SDS011;20704;51.260;22.558;2023-03-08T02:46:58;22.60;;;10.67;;
34459;SDS011;20704;51.260;22.558;2023-03-08T02:49:00;18.00;;;11.47;;
34459;SDS011;20704;51.260;22.558;2023-03-08T02:51:03;18.77;;;10.50;;
34459;SDS011;20704;51.260;22.558;2023-03-08T02:53:05;21.27;;;11.38;;
34459;SDS011;20704;51.260;22.558;2023-03-08T02:55:08;18.70;;;10.63;;
34459;SDS011;20704;51.260;22.558;2023-03-08T02:57:10;22.23;;;11.33;;
34459;SDS011;20704;51.260;22.558;2023-03-08T02:59:13;17.58;;;10.15;;
34459;SDS011;20704;51.260;22.558;2023-03-08T03:01:17;22.95;;;11.27;;
34459;SDS011;20704;51.260;22.558;2023-03-08T03:03:19;19.77;;;10.45;;
34459;SDS011;20704;51.260;22.558;2023-03-08T03:05:21;24.65;;;12.23;;
34459;SDS011;20704;51.260;22.558;2023-03-08T03:07:24;23.17;;;11.32;;
34459;SDS011;20704;51.260;22.558;2023-03-08T03:09:27;22.63;;;11.55;;
34459;SDS011;20704;51.260;22.558;2023-03-08T03:11:29;24.65;;;11.80;;
34459;SDS011;20704;51.260;22.558;2023-03-08T03:13:31;22.05;;;11.70;;
34459;SDS011;20704;51.260;22.558;2023-03-08T03:15:36;21.37;;;10.83;;
34459;SDS011;20704;51.260;22.558;2023-03-08T03:17:40;20.50;;;10.73;;
34459;SDS011;20704;51.260;22.558;2023-03-08T03:19:42;19.30;;;11.27;;
34459;SDS011;20704;51.260;22.558;2023-03-08T03:21:44;24.00;;;11.80;;
34459;SDS011;20704;51.260;22.558;2023-03-08T03:23:47;23.58;;;12.65;;
34459;SDS011;20704;51.260;22.558;2023-03-08T03:25:49;24.70;;;11.57;;
34459;SDS011;20704;51.260;22.558;2023-03-08T03:27:52;24.02;;;13.55;;
34459;SDS011;20704;51.260;22.558;2023-03-08T03:29:55;20.13;;;11.70;;
34459;SDS011;20704;51.260;22.558;2023-03-08T03:31:58;21.92;;;11.00;;
34459;SDS011;20704;51.260;22.558;2023-03-08T03:34:01;21.90;;;11.65;;
34459;SDS011;20704;51.260;22.558;2023-03-08T03:36:04;23.05;;;12.05;;
34459;SDS011;20704;51.260;22.558;2023-03-08T03:38:08;18.43;;;11.10;;
34459;SDS011;20704;51.260;22.558;2023-03-08T03:40:12;20.95;;;11.18;;
34459;SDS011;20704;51.260;22.558;2023-03-08T03:42:14;23.88;;;10.95;;
34459;SDS011;20704;51.260;22.558;2023-03-08T03:44:19;19.93;;;10.50;;
34459;SDS011;20704;51.260;22.558;2023-03-08T03:46:22;20.67;;;11.63;;
34459;SDS011;20704;51.260;22.558;2023-03-08T03:48:24;20.13;;;10.95;;
34459;SDS011;20704;51.260;22.558;2023-03-08T03:50:27;21.38;;;11.63;;
34459;SDS011;20704;51.260;22.558;2023-03-08T03:52:30;20.27;;;12.27;;
34459;SDS011;20704;51.260;22.558;2023-03-08T03:54:32;19.48;;;10.98;;
34459;SDS011;20704;51.260;22.558;2023-03-08T03:56:34;19.42;;;11.07;;
34459;SDS011;20704;51.260;22.558;2023-03-08T03:58:36;22.83;;;11.55;;
34459;SDS011;20704;51.260;22.558;2023-03-08T04:00:39;20.40;;;11.25;;
34459;SDS011;20704;51.260;22.558;2023-03-08T04:02:41;21.50;;;11.38;;
34459;SDS011;20704;51.260;22.558;2023-03-08T04:04:43;20.73;;;11.83;;
34459;SDS011;20704;51.260;22.558;2023-03-08T04:06:48;21.65;;;11.00;;
34459;SDS011;20704;51.260;22.558;2023-03-08T04:08:51;21.67;;;11.18;;
34459;SDS011;20704;51.260;22.558;2023-03-08T04:10:58;23.05;;;11.63;;
34459;SDS011;20704;51.260;22.558;2023-03-08T04:13:01;18.33;;;10.95;;
34459;SDS011;20704;51.260;22.558;2023-03-08T04:15:04;19.33;;;11.02;;
34459;SDS011;20704;51.260;22.558;2023-03-08T04:17:07;22.45;;;11.27;;
34459;SDS011;20704;51.260;22.558;2023-03-08T04:19:10;17.08;;;10.48;;
34459;SDS011;20704;51.260;22.558;2023-03-08T04:21:14;21.45;;;12.20;;
34459;SDS011;20704;51.260;22.558;2023-03-08T04:23:19;21.45;;;10.85;;
34459;SDS011;20704;51.260;22.558;2023-03-08T04:25:21;19.98;;;11.75;;
34459;SDS011;20704;51.260;22.558;2023-03-08T04:27:23;18.67;;;10.83;;
34459;SDS011;20704;51.260;22.558;2023-03-08T04:29:26;19.42;;;10.45;;
34459;SDS011;20704;51.260;22.558;2023-03-08T04:31:28;18.55;;;10.80;;
34459;SDS011;20704;51.260;22.558;2023-03-08T04:33:31;19.33;;;11.32;;
34459;SDS011;20704;51.260;22.558;2023-03-08T04:35:33;20.33;;;10.75;;
34459;SDS011;20704;51.260;22.558;2023-03-08T04:37:36;20.88;;;10.95;;
34459;SDS011;20704;51.260;22.558;2023-03-08T04:39:39;18.73;;;11.10;;
34459;SDS011;20704;51.260;22.558;2023-03-08T04:41:41;20.33;;;10.75;;
34459;SDS011;20704;51.260;22.558;2023-03-08T04:43:47;22.45;;;11.18;;
34459;SDS011;20704;51.260;22.558;2023-03-08T04:45:59;30.38;;;11.65;;
34459;SDS011;20704;51.260;22.558;2023-03-08T04:48:01;18.10;;;10.85;;
34459;SDS011;20704;51.260;22.558;2023-03-08T04:50:04;22.27;;;10.60;;
34459;SDS011;20704;51.260;22.558;2023-03-08T04:52:06;21.23;;;12.13;;
34459;SDS011;20704;51.260;22.558;2023-03-08T04:54:09;22.88;;;11.18;;
34459;SDS011;20704;51.260;22.558;2023-03-08T04:56:11;17.97;;;10.57;;
34459;SDS011;20704;51.260;22.558;2023-03-08T04:58:16;21.20;;;10.60;;
34459;SDS011;20704;51.260;22.558;2023-03-08T05:00:19;19.30;;;11.05;;
34459;SDS011;20704;51.260;22.558;2023-03-08T05:02:22;18.48;;;10.88;;
34459;SDS011;20704;51.260;22.558;2023-03-08T05:04:25;16.67;;;10.20;;
34459;SDS011;20704;51.260;22.558;2023-03-08T05:06:27;14.23;;;7.00;;
34459;SDS011;20704;51.260;22.558;2023-03-08T05:08:29;11.63;;;6.95;;
34459;SDS011;20704;51.260;22.558;2023-03-08T05:10:31;12.10;;;6.90;;
34459;SDS011;20704;51.260;22.558;2023-03-08T05:12:34;10.73;;;7.15;;
34459;SDS011;20704;51.260;22.558;2023-03-08T05:14:36;8.50;;;6.05;;
34459;SDS011;20704;51.260;22.558;2023-03-08T05:16:38;10.02;;;6.25;;
34459;SDS011;20704;51.260;22.558;2023-03-08T05:18:41;9.20;;;5.63;;
34459;SDS011;20704;51.260;22.558;2023-03-08T05:20:43;6.90;;;5.00;;
34459;SDS011;20704;51.260;22.558;2023-03-08T05:22:46;9.47;;;5.17;;
34459;SDS011;20704;51.260;22.558;2023-03-08T05:24:59;8.90;;;4.63;;
34459;SDS011;20704;51.260;22.558;2023-03-08T05:27:01;5.67;;;3.57;;
34459;SDS011;20704;51.260;22.558;2023-03-08T05:29:04;6.93;;;4.03;;
34459;SDS011;20704;51.260;22.558;2023-03-08T05:31:09;5.13;;;3.60;;
34459;SDS011;20704;51.260;22.558;2023-03-08T05:33:12;5.27;;;3.13;;
34459;SDS011;20704;51.260;22.558;2023-03-08T05:35:17;5.07;;;3.57;;
34459;SDS011;20704;51.260;22.558;2023-03-08T05:37:20;6.97;;;4.77;;
34459;SDS011;20704;51.260;22.558;2023-03-08T05:39:28;5.17;;;3.30;;
34459;SDS011;20704;51.260;22.558;2023-03-08T05:41:30;6.17;;;3.20;;
34459;SDS011;20704;51.260;22.558;2023-03-08T05:43:33;4.03;;;3.20;;
34459;SDS011;20704;51.260;22.558;2023-03-08T05:45:35;6.83;;;2.70;;
34459;SDS011;20704;51.260;22.558;2023-03-08T05:47:40;4.13;;;2.73;;
34459;SDS011;20704;51.260;22.558;2023-03-08T05:49:42;2.33;;;1.83;;
34459;SDS011;20704;51.260;22.558;2023-03-08T05:51:44;4.10;;;2.53;;
34459;SDS011;20704;51.260;22.558;2023-03-08T05:53:46;4.97;;;2.13;;
34459;SDS011;20704;51.260;22.558;2023-03-08T05:55:49;2.37;;;1.80;;
34459;SDS011;20704;51.260;22.558;2023-03-08T05:57:51;3.40;;;2.17;;
34459;SDS011;20704;51.260;22.558;2023-03-08T05:59:53;4.33;;;2.13;;
34459;SDS011;20704;51.260;22.558;2023-03-08T06:01:55;3.60;;;1.73;;
34459;SDS011;20704;51.260;22.558;2023-03-08T06:03:58;6.80;;;2.33;;
34459;SDS011;20704;51.260;22.558;2023-03-08T06:06:00;3.07;;;1.60;;
34459;SDS011;20704;51.260;22.558;2023-03-08T06:08:03;2.60;;;1.40;;
34459;SDS011;20704;51.260;22.558;2023-03-08T06:10:05;2.53;;;1.70;;
34459;SDS011;20704;51.260;22.558;2023-03-08T06:12:08;3.43;;;1.80;;
34459;SDS011;20704;51.260;22.558;2023-03-08T06:14:10;3.33;;;1.83;;
34459;SDS011;20704;51.260;22.558;2023-03-08T06:16:14;5.07;;;2.40;;
34459;SDS011;20704;51.260;22.558;2023-03-08T06:18:16;2.30;;;1.47;;
34459;SDS011;20704;51.260;22.558;2023-03-08T06:20:19;5.17;;;1.73;;
34459;SDS011;20704;51.260;22.558;2023-03-08T06:22:24;3.10;;;1.93;;
34459;SDS011;20704;51.260;22.558;2023-03-08T06:24:26;4.13;;;2.00;;
34459;SDS011;20704;51.260;22.558;2023-03-08T06:26:29;3.53;;;2.20;;
34459;SDS011;20704;51.260;22.558;2023-03-08T06:28:31;3.90;;;2.00;;
34459;SDS011;20704;51.260;22.558;2023-03-08T06:30:33;1.97;;;1.53;;
34459;SDS011;20704;51.260;22.558;2023-03-08T06:32:36;2.70;;;1.83;;
34459;SDS011;20704;51.260;22.558;2023-03-08T06:34:38;3.33;;;1.70;;
34459;SDS011;20704;51.260;22.558;2023-03-08T06:37:13;4.47;;;1.60;;
34459;SDS011;20704;51.260;22.558;2023-03-08T06:39:16;5.97;;;2.30;;
34459;SDS011;20704;51.260;22.558;2023-03-08T06:41:19;3.72;;;1.60;;
34459;SDS011;20704;51.260;22.558;2023-03-08T06:43:22;4.57;;;2.03;;
34459;SDS011;20704;51.260;22.558;2023-03-08T06:45:25;2.53;;;1.73;;
34459;SDS011;20704;51.260;22.558;2023-03-08T06:47:28;3.50;;;1.90;;
34459;SDS011;20704;51.260;22.558;2023-03-08T06:49:32;5.77;;;2.80;;
34459;SDS011;20704;51.260;22.558;2023-03-08T06:51:34;4.60;;;2.37;;
34459;SDS011;20704;51.260;22.558;2023-03-08T06:53:37;5.55;;;2.42;;
34459;SDS011;20704;51.260;22.558;2023-03-08T06:55:41;6.17;;;2.70;;
34459;SDS011;20704;51.260;22.558;2023-03-08T06:57:44;3.97;;;2.67;;
34459;SDS011;20704;51.260;22.558;2023-03-08T06:59:47;4.20;;;2.50;;
34459;SDS011;20704;51.260;22.558;2023-03-08T07:01:49;5.57;;;2.67;;
34459;SDS011;20704;51.260;22.558;2023-03-08T07:03:52;7.07;;;3.83;;
34459;SDS011;20704;51.260;22.558;2023-03-08T07:05:58;7.43;;;3.33;;
34459;SDS011;20704;51.260;22.558;2023-03-08T07:08:04;11.95;;;3.25;;
34459;SDS011;20704;51.260;22.558;2023-03-08T07:10:07;7.13;;;3.10;;
34459;SDS011;20704;51.260;22.558;2023-03-08T07:12:15;8.47;;;3.57;;
34459;SDS011;20704;51.260;22.558;2023-03-08T07:14:18;5.67;;;3.63;;
34459;SDS011;20704;51.260;22.558;2023-03-08T07:16:20;10.07;;;3.83;;
34459;SDS011;20704;51.260;22.558;2023-03-08T07:18:22;5.55;;;2.97;;
34459;SDS011;20704;51.260;22.558;2023-03-08T07:20:25;7.87;;;3.07;;
34459;SDS011;20704;51.260;22.558;2023-03-08T07:22:29;6.47;;;3.47;;
34459;SDS011;20704;51.260;22.558;2023-03-08T07:24:31;5.90;;;3.10;;
34459;SDS011;20704;51.260;22.558;2023-03-08T07:26:33;5.33;;;2.77;;
34459;SDS011;20704;51.260;22.558;2023-03-08T07:28:36;7.03;;;2.77;;
34459;SDS011;20704;51.260;22.558;2023-03-08T07:30:38;13.17;;;3.87;;
34459;SDS011;20704;51.260;22.558;2023-03-08T07:32:41;4.97;;;2.50;;
34459;SDS011;20704;51.260;22.558;2023-03-08T07:34:44;4.30;;;2.87;;
34459;SDS011;20704;51.260;22.558;2023-03-08T07:36:46;5.63;;;2.50;;
34459;SDS011;20704;51.260;22.558;2023-03-08T07:38:53;5.68;;;2.83;;
34459;SDS011;20704;51.260;22.558;2023-03-08T07:40:58;7.07;;;3.10;;
34459;SDS011;20704;51.260;22.558;2023-03-08T07:43:01;6.20;;;2.97;;
34459;SDS011;20704;51.260;22.558;2023-03-08T07:45:03;5.57;;;2.20;;
34459;SDS011;20704;51.260;22.558;2023-03-08T07:47:06;4.73;;;2.20;;
34459;SDS011;20704;51.260;22.558;2023-03-08T07:49:09;4.78;;;2.00;;
34459;SDS011;20704;51.260;22.558;2023-03-08T07:51:12;7.40;;;1.80;;
34459;SDS011;20704;51.260;22.558;2023-03-08T07:53:14;5.13;;;3.13;;
34459;SDS011;20704;51.260;22.558;2023-03-08T07:55:19;4.97;;;2.00;;
34459;SDS011;20704;51.260;22.558;2023-03-08T07:57:22;7.33;;;3.40;;
34459;SDS011;20704;51.260;22.558;2023-03-08T07:59:25;4.53;;;2.47;;
34459;SDS011;20704;51.260;22.558;2023-03-08T08:01:31;9.23;;;2.47;;
34459;SDS011;20704;51.260;22.558;2023-03-08T08:03:35;5.80;;;2.13;;
34459;SDS011;20704;51.260;22.558;2023-03-08T08:05:40;7.60;;;2.90;;
34459;SDS011;20704;51.260;22.558;2023-03-08T08:07:45;3.83;;;2.17;;
34459;SDS011;20704;51.260;22.558;2023-03-08T08:09:48;4.63;;;2.53;;
34459;SDS011;20704;51.260;22.558;2023-03-08T08:11:50;5.67;;;2.83;;
34459;SDS011;20704;51.260;22.558;2023-03-08T08:13:53;4.77;;;2.80;;
34459;SDS011;20704;51.260;22.558;2023-03-08T08:15:56;7.37;;;3.23;;
34459;SDS011;20704;51.260;22.558;2023-03-08T08:18:00;5.10;;;2.20;;
34459;SDS011;20704;51.260;22.558;2023-03-08T08:20:03;5.00;;;3.03;;
34459;SDS011;20704;51.260;22.558;2023-03-08T08:22:08;6.82;;;2.60;;
34459;SDS011;20704;51.260;22.558;2023-03-08T08:24:11;6.27;;;3.40;;
34459;SDS011;20704;51.260;22.558;2023-03-08T08:26:17;5.07;;;2.97;;
34459;SDS011;20704;51.260;22.558;2023-03-08T08:28:21;6.93;;;2.17;;
34459;SDS011;20704;51.260;22.558;2023-03-08T08:30:24;5.43;;;2.63;;
34459;SDS011;20704;51.260;22.558;2023-03-08T08:32:27;5.72;;;2.35;;
34459;SDS011;20704;51.260;22.558;2023-03-08T08:34:29;3.92;;;2.10;;
34459;SDS011;20704;51.260;22.558;2023-03-08T08:36:32;7.07;;;2.47;;
34459;SDS011;20704;51.260;22.558;2023-03-08T08:38:34;4.82;;;2.25;;
34459;SDS011;20704;51.260;22.558;2023-03-08T08:40:36;4.43;;;2.35;;
34459;SDS011;20704;51.260;22.558;2023-03-08T08:42:39;5.40;;;2.42;;
34459;SDS011;20704;51.260;22.558;2023-03-08T08:44:41;5.07;;;2.55;;
34459;SDS011;20704;51.260;22.558;2023-03-08T08:46:43;5.70;;;2.50;;
34459;SDS011;20704;51.260;22.558;2023-03-08T08:48:46;5.93;;;2.40;;
34459;SDS011;20704;51.260;22.558;2023-03-08T08:50:48;2.75;;;1.88;;
34459;SDS011;20704;51.260;22.558;2023-03-08T08:52:51;3.90;;;2.20;;
34459;SDS011;20704;51.260;22.558;2023-03-08T08:54:53;4.10;;;2.10;;
34459;SDS011;20704;51.260;22.558;2023-03-08T08:56:57;4.47;;;1.77;;
34459;SDS011;20704;51.260;22.558;2023-03-08T08:59:00;3.35;;;1.98;;
34459;SDS011;20704;51.260;22.558;2023-03-08T09:01:04;5.38;;;2.47;;
34459;SDS011;20704;51.260;22.558;2023-03-08T09:03:13;5.20;;;2.45;;
34459;SDS011;20704;51.260;22.558;2023-03-08T09:05:17;5.32;;;2.10;;
34459;SDS011;20704;51.260;22.558;2023-03-08T09:07:20;7.40;;;2.83;;
34459;SDS011;20704;51.260;22.558;2023-03-08T09:09:23;6.18;;;2.00;;
34459;SDS011;20704;51.260;22.558;2023-03-08T09:11:26;3.30;;;1.92;;
34459;SDS011;20704;51.260;22.558;2023-03-08T09:13:29;3.83;;;2.13;;
34459;SDS011;20704;51.260;22.558;2023-03-08T09:15:33;6.15;;;2.15;;
34459;SDS011;20704;51.260;22.558;2023-03-08T09:17:37;3.45;;;1.70;;
34459;SDS011;20704;51.260;22.558;2023-03-08T09:19:39;3.30;;;2.35;;
34459;SDS011;20704;51.260;22.558;2023-03-08T09:21:42;7.63;;;1.85;;
34459;SDS011;20704;51.260;22.558;2023-03-08T09:23:44;3.45;;;2.05;;
34459;SDS011;20704;51.260;22.558;2023-03-08T09:25:54;5.35;;;2.00;;
34459;SDS011;20704;51.260;22.558;2023-03-08T09:27:57;2.72;;;1.92;;
34459;SDS011;20704;51.260;22.558;2023-03-08T09:30:00;3.33;;;1.67;;
34459;SDS011;20704;51.260;22.558;2023-03-08T09:32:03;3.08;;;1.98;;
34459;SDS011;20704;51.260;22.558;2023-03-08T09:34:06;5.60;;;2.53;;
34459;SDS011;20704;51.260;22.558;2023-03-08T09:36:11;3.78;;;2.22;;
34459;SDS011;20704;51.260;22.558;2023-03-08T09:38:13;4.43;;;2.22;;
34459;SDS011;20704;51.260;22.558;2023-03-08T09:40:19;4.93;;;1.77;;
34459;SDS011;20704;51.260;22.558;2023-03-08T09:42:31;3.08;;;1.58;;
34459;SDS011;20704;51.260;22.558;2023-03-08T09:48:57;3.10;;;1.92;;
34459;SDS011;20704;51.260;22.558;2023-03-08T09:51:02;3.10;;;1.88;;
34459;SDS011;20704;51.260;22.558;2023-03-08T09:55:21;5.68;;;1.65;;
34459;SDS011;20704;51.260;22.558;2023-03-08T09:57:33;3.00;;;1.35;;
34459;SDS011;20704;51.260;22.558;2023-03-08T09:59:46;2.05;;;1.55;;
34459;SDS011;20704;51.260;22.558;2023-03-08T10:11:34;4.38;;;1.67;;
34459;SDS011;20704;51.260;22.558;2023-03-08T10:13:48;4.85;;;2.17;;
34459;SDS011;20704;51.260;22.558;2023-03-08T10:15:57;5.03;;;1.88;;
34459;SDS011;20704;51.260;22.558;2023-03-08T10:18:12;3.83;;;1.67;;
34459;SDS011;20704;51.260;22.558;2023-03-08T10:20:36;4.40;;;1.70;;
34459;SDS011;20704;51.260;22.558;2023-03-08T10:22:41;3.13;;;1.55;;
34459;SDS011;20704;51.260;22.558;2023-03-08T10:27:26;3.72;;;1.30;;
34459;SDS011;20704;51.260;22.558;2023-03-08T10:29:32;2.75;;;1.70;;
34459;SDS011;20704;51.260;22.558;2023-03-08T10:31:35;3.90;;;1.80;;
34459;SDS011;20704;51.260;22.558;2023-03-08T10:33:37;4.22;;;1.58;;
34459;SDS011;20704;51.260;22.558;2023-03-08T10:37:58;2.80;;;1.30;;
34459;SDS011;20704;51.260;22.558;2023-03-08T10:40:01;5.57;;;2.28;;
34459;SDS011;20704;51.260;22.558;2023-03-08T10:42:13;7.93;;;2.30;;
34459;SDS011;20704;51.260;22.558;2023-03-08T10:44:37;3.97;;;1.58;;
34459;SDS011;20704;51.260;22.558;2023-03-08T10:46:45;4.78;;;1.48;;
34459;SDS011;20704;51.260;22.558;2023-03-08T10:48:49;2.13;;;1.38;;
34459;SDS011;20704;51.260;22.558;2023-03-08T10:51:02;5.22;;;1.50;;
34459;SDS011;20704;51.260;22.558;2023-03-08T10:53:25;4.95;;;2.00;;
34459;SDS011;20704;51.260;22.558;2023-03-08T10:55:29;4.53;;;1.42;;
34459;SDS011;20704;51.260;22.558;2023-03-08T10:57:53;1.83;;;1.15;;
34459;SDS011;20704;51.260;22.558;2023-03-08T10:59:56;5.65;;;1.52;;
34459;SDS011;20704;51.260;22.558;2023-03-08T11:04:18;2.50;;;1.70;;
34459;SDS011;20704;51.260;22.558;2023-03-08T11:06:23;1.92;;;1.10;;
34459;SDS011;20704;51.260;22.558;2023-03-08T11:08:27;6.88;;;1.40;;
34459;SDS011;20704;51.260;22.558;2023-03-08T11:10:40;2.88;;;1.40;;
34459;SDS011;20704;51.260;22.558;2023-03-08T11:12:42;3.53;;;1.75;;
34459;SDS011;20704;51.260;22.558;2023-03-08T11:14:45;1.90;;;1.13;;
34459;SDS011;20704;51.260;22.558;2023-03-08T11:21:42;4.85;;;1.88;;
34459;SDS011;20704;51.260;22.558;2023-03-08T11:28:06;4.28;;;1.52;;
34459;SDS011;20704;51.260;22.558;2023-03-08T11:30:27;2.53;;;1.20;;
34459;SDS011;20704;51.260;22.558;2023-03-08T11:34:56;3.22;;;1.67;;
34459;SDS011;20704;51.260;22.558;2023-03-08T11:47:29;10.95;;;1.85;;
34459;SDS011;20704;51.260;22.558;2023-03-08T11:56:59;3.05;;;1.38;;
34459;SDS011;20704;51.260;22.558;2023-03-08T11:59:15;3.85;;;1.65;;
34459;SDS011;20704;51.260;22.558;2023-03-08T12:01:43;3.45;;;2.28;;
34459;SDS011;20704;51.260;22.558;2023-03-08T12:03:54;4.82;;;1.70;;
34459;SDS011;20704;51.260;22.558;2023-03-08T12:06:13;6.78;;;1.90;;
34459;SDS011;20704;51.260;22.558;2023-03-08T12:13:13;5.18;;;1.95;;
34459;SDS011;20704;51.260;22.558;2023-03-08T12:15:23;4.18;;;1.63;;
34459;SDS011;20704;51.260;22.558;2023-03-08T12:17:31;3.70;;;1.60;;
34459;SDS011;20704;51.260;22.558;2023-03-08T12:19:44;5.03;;;1.30;;
34459;SDS011;20704;51.260;22.558;2023-03-08T12:26:13;4.40;;;1.30;;
34459;SDS011;20704;51.260;22.558;2023-03-08T12:28:29;4.97;;;1.58;;
34459;SDS011;20704;51.260;22.558;2023-03-08T12:30:43;5.47;;;1.50;;
34459;SDS011;20704;51.260;22.558;2023-03-08T12:33:03;6.57;;;1.58;;
34459;SDS011;20704;51.260;22.558;2023-03-08T12:37:26;6.43;;;1.73;;
34459;SDS011;20704;51.260;22.558;2023-03-08T12:41:36;10.50;;;2.20;;
34459;SDS011;20704;51.260;22.558;2023-03-08T12:43:38;3.83;;;1.38;;
34459;SDS011;20704;51.260;22.558;2023-03-08T12:45:42;7.28;;;2.05;;
34459;SDS011;20704;51.260;22.558;2023-03-08T12:50:07;6.93;;;1.58;;
34459;SDS011;20704;51.260;22.558;2023-03-08T12:54:21;2.75;;;1.73;;
34459;SDS011;20704;51.260;22.558;2023-03-08T12:56:28;3.72;;;1.48;;
34459;SDS011;20704;51.260;22.558;2023-03-08T12:58:59;4.22;;;1.70;;
34459;SDS011;20704;51.260;22.558;2023-03-08T13:01:04;3.00;;;1.65;;
34459;SDS011;20704;51.260;22.558;2023-03-08T13:07:36;3.08;;;1.58;;
34459;SDS011;20704;51.260;22.558;2023-03-08T13:11:56;3.67;;;1.60;;
34459;SDS011;20704;51.260;22.558;2023-03-08T13:16:34;4.65;;;1.98;;
34459;SDS011;20704;51.260;22.558;2023-03-08T13:18:37;15.63;;;2.88;;
34459;SDS011;20704;51.260;22.558;2023-03-08T13:23:21;5.15;;;1.40;;
34459;SDS011;20704;51.260;22.558;2023-03-08T13:28:20;3.53;;;1.45;;
34459;SDS011;20704;51.260;22.558;2023-03-08T13:32:26;2.63;;;1.35;;
34459;SDS011;20704;51.260;22.558;2023-03-08T13:34:30;3.33;;;1.90;;
34459;SDS011;20704;51.260;22.558;2023-03-08T13:36:33;3.35;;;1.40;;
34459;SDS011;20704;51.260;22.558;2023-03-08T13:38:36;3.78;;;1.15;;
34459;SDS011;20704;51.260;22.558;2023-03-08T13:40:39;3.40;;;1.60;;
34459;SDS011;20704;51.260;22.558;2023-03-08T13:42:53;2.03;;;1.20;;